Time;durP1;ratioP1;P1;durP2;ratioP2;P2;SDS_P1;SDS_P2;PMS_P1;PMS_P2;Temp;Humidity;BMP_temperature;BMP_pressure;BME280_temperature;BME280_humidity;BME280_pressure;Samples;Min_cycle;Max_cycle;Signal;HPM_P1;HPM_P2
2022/11/18 00:00:04;;;;;;;0.03;0.03;;;;;;;8.17;76.54;98978.69;7363270;19;20077;-58
2022/11/18 00:02:30;;;;;;;0.00;0.00;;;;;;;8.28;76.35;98991.25;7363417;19;21591;-57
2022/11/18 00:04:55;;;;;;;0.00;0.00;;;;;;;8.28;76.36;98986.06;7359511;19;20034;-57
2022/11/18 00:07:20;;;;;;;0.10;0.10;;;;;;;8.30;76.44;98994.63;7361934;19;20014;-57
2022/11/18 00:09:46;;;;;;;0.10;0.10;;;;;;;8.31;76.65;98991.13;7363632;19;20027;-56
2022/11/18 00:14:55;;;;;;;0.10;0.10;;;;;;;8.32;76.72;99001.47;7363524;19;20014;-57
2022/11/18 00:17:21;;;;;;;0.00;0.00;;;;;;;8.36;76.51;99007.41;7362026;19;21845;-57
2022/11/18 00:19:46;;;;;;;0.00;0.00;;;;;;;8.32;76.61;99004.06;7362943;19;20019;-57
2022/11/18 00:22:12;;;;;;;0.10;0.10;;;;;;;8.39;76.75;99015.09;7362403;19;20011;-57
2022/11/18 00:24:37;;;;;;;0.00;0.00;;;;;;;8.35;76.59;99008.28;7362645;19;20029;-57
2022/11/18 00:27:03;;;;;;;0.00;0.00;;;;;;;8.37;76.56;99009.13;7363606;19;20031;-57
2022/11/18 00:29:30;;;;;;;0.00;0.00;;;;;;;8.43;76.50;99016.66;7360774;19;20015;-57
2022/11/18 00:31:56;;;;;;;0.00;0.00;;;;;;;8.46;76.78;99023.47;7362956;19;20023;-57
2022/11/18 00:34:22;;;;;;;0.10;0.10;;;;;;;8.47;76.77;99022.59;7357451;19;20433;-56
2022/11/18 00:36:48;;;;;;;0.10;0.10;;;;;;;8.48;76.75;99022.53;7363609;19;20016;-57
2022/11/18 00:39:16;;;;;;;0.10;0.10;;;;;;;8.52;76.89;99042.31;7362765;19;20029;-57
2022/11/18 00:44:25;;;;;;;0.00;0.00;;;;;;;8.52;76.61;99042.31;7361740;19;20013;-57
2022/11/18 00:46:51;;;;;;;0.00;0.00;;;;;;;8.51;76.74;99040.59;7363448;19;20318;-57
2022/11/18 00:49:16;;;;;;;0.10;0.10;;;;;;;8.54;76.63;99047.44;7361657;19;20650;-57
2022/11/18 00:51:42;;;;;;;0.03;0.03;;;;;;;8.55;76.56;99057.78;7363209;19;20364;-57
2022/11/18 00:54:07;;;;;;;0.00;0.00;;;;;;;8.56;76.95;99054.25;7359659;19;20093;-57
2022/11/18 00:56:32;;;;;;;0.08;0.08;;;;;;;8.58;77.16;99057.66;7363365;19;20024;-57
2022/11/18 00:58:58;;;;;;;0.00;0.00;;;;;;;8.58;76.99;99057.66;7361108;19;20006;-56
2022/11/18 01:01:23;;;;;;;0.00;0.00;;;;;;;8.58;76.81;99062.88;7361281;19;20011;-57
2022/11/18 01:03:49;;;;;;;0.08;0.08;;;;;;;8.63;76.84;99064.44;7362230;19;20014;-57
2022/11/18 01:06:14;;;;;;;0.10;0.10;;;;;;;8.64;76.96;99060.94;7361745;19;20022;-57
2022/11/18 01:08:40;;;;;;;0.00;0.00;;;;;;;8.59;76.97;99048.09;7360774;19;20010;-57
2022/11/18 01:13:51;;;;;;;0.00;0.00;;;;;;;8.70;77.21;99058.91;7363577;19;20025;-57
2022/11/18 01:16:25;;;;;;;0.00;0.00;;;;;;;8.73;77.04;99070.97;7362479;19;20033;-56
2022/11/18 01:18:51;;;;;;;0.00;0.00;;;;;;;8.75;77.04;99079.53;7368820;19;20015;-57
2022/11/18 01:21:17;;;;;;;0.00;0.00;;;;;;;8.74;77.15;99072.66;7368881;19;20086;-57
2022/11/18 01:23:43;;;;;;;0.05;0.05;;;;;;;8.75;76.91;99083.00;7367294;19;20039;-57
2022/11/18 01:26:11;;;;;;;0.00;0.00;;;;;;;8.77;76.87;99075.97;7369172;19;20023;-56
2022/11/18 01:28:37;;;;;;;0.00;0.00;;;;;;;8.78;76.96;99079.44;7366563;19;20376;-57
2022/11/18 01:31:05;;;;;;;0.00;0.00;;;;;;;8.79;77.04;99075.91;7368934;19;20031;-57
2022/11/18 01:33:31;;;;;;;0.00;0.00;;;;;;;8.78;76.83;99069.03;7368694;19;20017;-57
2022/11/18 01:35:56;;;;;;;0.10;0.10;;;;;;;8.81;77.00;99072.31;7365993;19;20066;-57
2022/11/18 01:38:21;;;;;;;0.00;0.00;;;;;;;8.83;77.27;99072.28;7363278;19;20031;-57
2022/11/18 01:40:47;;;;;;;0.03;0.03;;;;;;;8.80;77.15;99069.78;7361695;19;20487;-57
2022/11/18 01:43:17;;;;;;;0.00;0.00;;;;;;;8.87;76.88;99073.84;7367943;19;20015;-57
2022/11/18 01:45:46;;;;;;;0.00;0.00;;;;;;;8.89;76.76;99085.03;7366928;19;20849;-57
2022/11/18 01:48:25;;;;;;;0.00;0.00;;;;;;;8.92;76.83;99092.72;7367163;19;20479;-57
2022/11/18 01:51:01;;;;;;;0.00;0.00;;;;;;;8.91;77.00;99090.16;7368497;19;20011;-57
2022/11/18 01:53:36;;;;;;;0.10;0.10;;;;;;;8.80;76.74;99080.19;7365124;19;20354;-57
2022/11/18 01:56:15;;;;;;;0.00;0.00;;;;;;;8.90;76.78;99091.91;7369023;19;20417;-57
2022/11/18 01:58:45;;;;;;;0.00;0.00;;;;;;;8.88;76.53;99101.56;7368519;19;20011;-56
2022/11/18 02:01:11;;;;;;;0.03;0.03;;;;;;;8.86;77.00;99095.56;7366759;19;20019;-57
2022/11/18 02:03:37;;;;;;;0.00;0.00;;;;;;;8.85;76.79;99096.47;7365866;19;20010;-57
2022/11/18 02:06:05;;;;;;;0.00;0.00;;;;;;;8.86;76.97;99087.75;7366181;19;20077;-58
2022/11/18 02:08:31;;;;;;;0.00;0.00;;;;;;;8.76;77.15;99076.88;7367547;19;20019;-57
2022/11/18 02:10:56;;;;;;;0.00;0.00;;;;;;;8.83;76.85;99093.09;7365605;19;20101;-57
2022/11/18 02:13:23;;;;;;;0.00;0.00;;;;;;;8.75;77.10;99079.53;7364817;19;20097;-57
2022/11/18 02:16:05;;;;;;;0.10;0.10;;;;;;;8.86;76.67;99090.34;7366999;19;20659;-54
2022/11/18 02:18:46;;;;;;;0.10;0.10;;;;;;;8.88;76.76;99105.94;7364319;19;20465;-57
2022/11/18 02:21:17;;;;;;;0.10;0.10;;;;;;;8.87;76.73;99105.09;7367853;19;20106;-57
2022/11/18 02:24:17;;;;;;;0.08;0.08;;;;;;;8.89;76.86;99105.84;7366923;19;20010;-57
2022/11/18 02:26:58;;;;;;;0.10;0.10;;;;;;;8.89;76.86;99107.63;7263804;19;2004150;-57
2022/11/18 02:29:42;;;;;;;0.10;0.10;;;;;;;8.92;76.86;99110.94;7366242;19;20014;-58
2022/11/18 02:32:17;;;;;;;0.00;0.00;;;;;;;8.83;76.85;99098.31;7366674;19;20017;-57
2022/11/18 02:35:14;;;;;;;0.08;0.08;;;;;;;8.96;77.02;99103.84;7368281;19;20569;-58
2022/11/18 02:37:46;;;;;;;0.00;0.00;;;;;;;8.95;77.30;99102.16;7264218;19;2004503;-55
2022/11/18 02:40:18;;;;;;;0.10;0.10;;;;;;;8.91;77.13;99098.81;7366070;19;20022;-58
2022/11/18 02:42:49;;;;;;;0.00;0.00;;;;;;;8.99;77.08;99108.94;7365155;19;20042;-57
2022/11/18 02:45:17;;;;;;;0.00;0.00;;;;;;;8.95;77.33;99097.78;7366011;19;20082;-57
2022/11/18 02:47:46;;;;;;;0.10;0.10;;;;;;;9.03;76.93;99113.09;7368556;19;20025;-56
2022/11/18 02:50:16;;;;;;;0.00;0.00;;;;;;;9.00;76.96;99106.25;7365985;19;20563;-57
2022/11/18 02:52:45;;;;;;;0.00;0.00;;;;;;;9.05;77.15;99106.06;7366060;19;20357;-57
2022/11/18 02:55:13;;;;;;;0.00;0.00;;;;;;;9.04;77.20;99106.97;7367790;19;20023;-57
2022/11/18 02:57:41;;;;;;;0.00;0.00;;;;;;;9.06;76.87;99116.41;7359772;19;20022;-54
2022/11/18 03:00:06;;;;;;;;;;;;;;;9.12;76.95;99114.44;7363760;19;20468;-56
2022/11/18 03:02:44;;;;;;;0.00;0.00;;;;;;;9.12;76.87;99119.66;7364309;19;19986;-57
2022/11/18 03:05:18;;;;;;;0.00;0.00;;;;;;;9.07;77.05;99112.91;7365072;19;20014;-56
2022/11/18 03:07:49;;;;;;;0.00;0.00;;;;;;;8.98;76.84;99102.88;7365166;19;20484;-57
2022/11/18 03:10:15;;;;;;;0.10;0.10;;;;;;;9.07;76.74;99112.91;7353225;19;20010;-57
2022/11/18 03:13:01;;;;;;;0.10;0.10;;;;;;;9.08;76.68;99117.19;7360536;19;20081;-57
2022/11/18 03:15:51;;;;;;;0.00;0.00;;;;;;;9.10;76.78;99120.56;7259290;19;2004325;-57
2022/11/18 03:18:27;;;;;;;0.00;0.00;;;;;;;9.04;77.17;99118.22;7353264;19;20039;-57
2022/11/18 03:21:15;;;;;;;0.10;0.10;;;;;;;9.10;76.83;99128.38;7360331;19;20513;-57
2022/11/18 03:24:02;;;;;;;0.00;0.00;;;;;;;9.12;76.88;99122.25;7362159;19;20002;-57
2022/11/18 03:26:37;;;;;;;0.00;0.00;;;;;;;9.07;77.04;99118.13;7365385;19;20025;-57
2022/11/18 03:29:11;;;;;;;0.10;0.10;;;;;;;9.09;76.75;99125.84;7365637;19;20007;-56
2022/11/18 03:31:42;;;;;;;0.10;0.10;;;;;;;9.08;76.95;99137.19;7362179;19;20019;-57
2022/11/18 03:34:17;;;;;;;0.00;0.00;;;;;;;9.07;76.79;99141.56;7364530;19;20002;-57
2022/11/18 03:36:48;;;;;;;0.00;0.00;;;;;;;9.03;76.98;99126.97;7364103;19;20461;-56
2022/11/18 03:39:15;;;;;;;0.10;0.10;;;;;;;8.93;77.00;99120.44;7363361;19;20424;-56
2022/11/18 03:42:06;;;;;;;0.00;0.00;;;;;;;9.08;76.75;99145.84;7357969;19;20552;-57
2022/11/18 03:44:35;;;;;;;0.00;0.00;;;;;;;9.05;77.01;99140.75;7360274;19;20022;-57
2022/11/18 03:47:08;;;;;;;0.00;0.00;;;;;;;9.06;76.61;99150.25;7364530;19;20013;-57
2022/11/18 03:49:41;;;;;;;0.00;0.00;;;;;;;9.06;76.74;99157.22;7361720;19;20052;-57
2022/11/18 03:52:14;;;;;;;0.00;0.00;;;;;;;9.03;76.60;99145.19;7364047;19;20010;-57
2022/11/18 03:54:42;;;;;;;0.00;0.00;;;;;;;9.02;76.72;99151.31;7363475;19;20007;-58
2022/11/18 03:57:14;;;;;;;0.10;0.10;;;;;;;8.88;76.52;99131.97;7364286;19;20037;-56
2022/11/18 03:59:42;;;;;;;0.00;0.00;;;;;;;9.00;76.36;99167.88;7361261;19;20016;-57
2022/11/18 04:02:12;;;;;;;0.00;0.00;;;;;;;8.98;76.53;99160.16;7363006;19;20018;-57
2022/11/18 04:04:39;;;;;;;0.10;0.10;;;;;;;8.95;76.85;99165.47;7352555;19;20012;-57
2022/11/18 04:07:10;;;;;;;0.10;0.10;;;;;;;8.97;76.61;99168.88;7365067;19;20026;-58
2022/11/18 04:09:54;;;;;;;0.03;0.03;;;;;;;8.88;76.64;99158.84;7361341;19;20014;-58
2022/11/18 04:12:20;;;;;;;0.10;0.10;;;;;;;8.96;76.69;99169.75;7365003;19;20073;-57
2022/11/18 04:14:51;;;;;;;0.10;0.10;;;;;;;8.95;76.73;99165.47;7362717;19;20035;-57
2022/11/18 04:17:20;;;;;;;0.10;0.10;;;;;;;8.94;77.16;99163.78;7363173;19;20015;-57
2022/11/18 04:19:45;;;;;;;0.00;0.00;;;;;;;8.98;77.12;99180.97;7359058;19;20006;-57
2022/11/18 04:22:12;;;;;;;0.03;0.03;;;;;;;8.99;76.87;99182.66;7361789;19;20478;-57
2022/11/18 04:24:38;;;;;;;0.00;0.00;;;;;;;9.00;77.14;99184.34;7363987;19;20014;-57
2022/11/18 04:27:04;;;;;;;0.00;0.00;;;;;;;9.02;77.27;99182.56;7363568;19;20011;-57
2022/11/18 04:29:30;;;;;;;0.10;0.10;;;;;;;9.04;77.02;99191.13;7364372;19;20451;-56
2022/11/18 04:31:55;;;;;;;0.00;0.00;;;;;;;9.07;77.05;99190.16;7363581;19;20110;-55
2022/11/18 04:34:21;;;;;;;0.10;0.10;;;;;;;9.04;77.04;99201.56;7365044;19;20082;-57
2022/11/18 04:36:46;;;;;;;0.10;0.10;;;;;;;9.09;76.84;99212.63;7364222;19;20089;-57
2022/11/18 04:39:12;;;;;;;0.00;0.00;;;;;;;9.11;76.77;99209.97;7362523;19;20069;-56
2022/11/18 04:41:56;;;;;;;0.00;0.00;;;;;;;9.12;77.09;99218.63;7364313;19;20026;-57
2022/11/18 04:44:29;;;;;;;0.10;0.10;;;;;;;9.14;77.01;99216.81;7363905;19;20168;-57
2022/11/18 04:46:56;;;;;;;0.10;0.10;;;;;;;9.13;76.58;99225.53;7362631;19;20030;-57
2022/11/18 04:49:23;;;;;;;0.03;0.03;;;;;;;9.13;76.60;99220.34;7360445;19;20086;-57
2022/11/18 04:51:49;;;;;;;0.00;0.00;;;;;;;9.05;76.81;99218.88;7366899;19;20476;-57
2022/11/18 04:54:15;;;;;;;0.10;0.10;;;;;;;9.10;76.78;99232.56;7369813;19;20122;-57
2022/11/18 04:56:41;;;;;;;0.00;0.00;;;;;;;9.08;76.49;99226.56;7369468;19;20814;-57
2022/11/18 04:59:07;;;;;;;0.00;0.00;;;;;;;9.08;76.31;99228.31;7370210;19;20011;-57
2022/11/18 05:01:33;;;;;;;0.10;0.10;;;;;;;9.06;76.59;99236.19;7368272;19;20007;-57
2022/11/18 05:04:02;;;;;;;0.03;0.03;;;;;;;9.06;76.19;99241.38;7369135;19;20006;-57
2022/11/18 05:06:29;;;;;;;0.00;0.00;;;;;;;9.03;76.58;99245.88;7368672;19;20054;-55
2022/11/18 05:08:57;;;;;;;0.00;0.00;;;;;;;9.03;76.51;99251.94;7368664;19;20014;-58
2022/11/18 05:14:06;;;;;;;0.10;0.10;;;;;;;8.81;76.06;99231.09;7369552;19;20028;-57
2022/11/18 05:16:32;;;;;;;0.00;0.00;;;;;;;8.97;76.05;99273.03;7368248;19;20043;-57
2022/11/18 05:18:57;;;;;;;0.10;0.10;;;;;;;8.95;76.43;99273.97;7367437;19;20018;-57
2022/11/18 05:21:23;;;;;;;0.00;0.00;;;;;;;8.91;76.27;99262.81;7369387;19;20355;-57
2022/11/18 05:23:48;;;;;;;0.00;0.00;;;;;;;8.93;76.29;99273.19;7369679;19;20047;-57
2022/11/18 05:26:13;;;;;;;0.00;0.00;;;;;;;8.89;75.99;99264.66;7369128;19;20021;-56
2022/11/18 05:28:39;;;;;;;0.00;0.00;;;;;;;8.87;76.23;99271.69;7367847;19;20021;-57
2022/11/18 05:31:13;;;;;;;0.00;0.00;;;;;;;8.84;76.29;99271.78;7369298;19;20017;-58
2022/11/18 05:33:39;;;;;;;0.10;0.10;;;;;;;8.82;76.47;99274.47;7369693;19;20030;-57
2022/11/18 05:36:07;;;;;;;0.10;0.10;;;;;;;8.82;76.14;99278.81;7368480;19;20031;-57
2022/11/18 05:38:34;;;;;;;0.00;0.00;;;;;;;8.79;76.43;99284.13;7368578;19;20093;-57
2022/11/18 05:41:00;;;;;;;0.00;0.00;;;;;;;8.76;76.28;99281.63;7368232;19;20588;-57
2022/11/18 05:43:25;;;;;;;0.00;0.00;;;;;;;8.74;76.53;99276.50;7368560;19;20017;-57
2022/11/18 05:45:51;;;;;;;0.00;0.00;;;;;;;8.70;76.30;99276.66;7368242;19;20014;-57
2022/11/18 05:48:17;;;;;;;0.00;0.00;;;;;;;8.71;76.25;99287.00;7368775;19;22274;-57
2022/11/18 05:50:49;;;;;;;0.08;0.08;;;;;;;8.70;76.12;99289.69;7365345;19;20337;-57
2022/11/18 05:53:16;;;;;;;0.10;0.10;;;;;;;8.69;76.31;99293.19;7368194;19;20014;-56
2022/11/18 05:56:02;;;;;;;0.10;0.10;;;;;;;8.68;75.91;99296.72;7368400;19;20047;-56
2022/11/18 05:58:28;;;;;;;0.10;0.10;;;;;;;8.62;76.27;99304.72;7368823;19;20423;-57
2022/11/18 06:00:59;;;;;;;0.10;0.10;;;;;;;8.53;75.96;99288.56;7368785;19;20030;-58
2022/11/18 06:03:27;;;;;;;0.10;0.10;;;;;;;8.47;75.74;99272.34;7366202;19;20010;-57
2022/11/18 06:05:57;;;;;;;;;;;;;;;8.61;75.73;99308.22;7369487;19;20461;-57
2022/11/18 06:08:26;;;;;;;0.10;0.10;;;;;;;8.53;75.78;99309.38;7366850;19;20614;-57
2022/11/18 06:10:52;;;;;;;0.10;0.10;;;;;;;8.48;75.51;99306.09;7368898;19;20048;-55
2022/11/18 06:13:25;;;;;;;0.00;0.00;;;;;;;8.51;75.69;99311.16;7367337;19;20082;-57
2022/11/18 06:15:51;;;;;;;0.00;0.00;;;;;;;8.46;75.87;99307.88;7368039;19;20109;-58
2022/11/18 06:18:17;;;;;;;0.00;0.00;;;;;;;8.43;75.97;99315.81;7367118;19;20010;-58
2022/11/18 06:20:42;;;;;;;0.00;0.00;;;;;;;8.41;76.10;99317.59;7367750;19;20014;-57
2022/11/18 06:23:07;;;;;;;0.00;0.00;;;;;;;8.39;75.71;99318.56;7366801;19;20023;-57
2022/11/18 06:25:37;;;;;;;0.00;0.00;;;;;;;8.29;75.78;99305.84;7368115;19;20010;-57
2022/11/18 06:28:02;;;;;;;0.00;0.00;;;;;;;8.34;75.59;99323.91;7365783;19;20019;-57
2022/11/18 06:30:28;;;;;;;0.00;0.00;;;;;;;8.32;75.85;99316.16;7367556;19;20452;-57
2022/11/18 06:32:53;;;;;;;0.08;0.08;;;;;;;8.32;75.95;99328.31;7365621;19;20038;-57
2022/11/18 06:35:19;;;;;;;0.10;0.10;;;;;;;8.29;75.99;99320.63;7366610;19;20500;-57
2022/11/18 06:37:45;;;;;;;0.10;0.10;;;;;;;8.27;75.93;99343.25;7365418;19;20025;-57
2022/11/18 06:40:11;;;;;;;0.05;0.05;;;;;;;8.01;75.64;99306.00;7367313;19;20023;-58
2022/11/18 06:45:21;;;;;;;0.00;0.00;;;;;;;8.13;75.54;99340.28;7367732;19;20021;-58
2022/11/18 06:47:46;;;;;;;0.00;0.00;;;;;;;8.07;75.56;99342.19;7366323;19;22997;-57
2022/11/18 06:50:12;;;;;;;0.00;0.00;;;;;;;8.05;75.52;99338.75;7366228;19;20022;-57
2022/11/18 06:52:37;;;;;;;0.10;0.10;;;;;;;8.12;75.68;99346.38;7366122;19;20010;-56
2022/11/18 06:55:06;;;;;;;0.10;0.10;;;;;;;8.12;75.34;99359.38;7366812;19;20026;-56
2022/11/18 06:57:31;;;;;;;0.00;0.00;;;;;;;8.10;75.55;99358.56;7364278;19;20049;-57
2022/11/18 06:59:57;;;;;;;0.10;0.10;;;;;;;8.09;75.39;99364.66;7357990;19;20534;-57
2022/11/18 07:02:22;;;;;;;0.10;0.10;;;;;;;8.06;75.31;99376.88;7363726;19;20098;-57
2022/11/18 07:04:47;;;;;;;0.00;0.00;;;;;;;8.05;75.36;99380.34;7365676;19;20019;-57
2022/11/18 07:07:13;;;;;;;0.10;0.10;;;;;;;7.93;75.13;99370.38;7363654;19;20014;-56
2022/11/18 07:09:38;;;;;;;0.10;0.10;;;;;;;8.02;75.46;99395.22;7362058;19;19998;-57
2022/11/18 07:12:04;;;;;;;0.00;0.00;;;;;;;7.99;75.41;99388.38;7366248;19;20022;-57
2022/11/18 07:14:30;;;;;;;0.10;0.10;;;;;;;7.98;75.41;99396.22;7359174;19;20014;-57
2022/11/18 07:16:55;;;;;;;0.00;0.00;;;;;;;7.97;75.44;99399.72;7363992;19;20007;-57
2022/11/18 07:19:21;;;;;;;0.00;0.00;;;;;;;7.92;75.52;99383.44;7365930;19;20045;-57
2022/11/18 07:21:46;;;;;;;0.10;0.10;;;;;;;7.92;75.00;99405.06;7362776;19;20057;-57
2022/11/18 07:24:14;;;;;;;0.00;0.00;;;;;;;7.92;75.34;99405.06;7364542;19;20002;-55
2022/11/18 07:26:40;;;;;;;0.00;0.00;;;;;;;7.89;75.15;99399.13;7365640;19;20398;-57
2022/11/18 07:29:05;;;;;;;0.00;0.00;;;;;;;7.87;75.05;99411.34;7364963;19;20007;-57
2022/11/18 07:31:31;;;;;;;0.10;0.10;;;;;;;7.66;75.16;99376.50;7364982;19;22554;-58
2022/11/18 07:33:57;;;;;;;0.10;0.10;;;;;;;7.80;74.80;99405.47;7364041;19;20014;-55
2022/11/18 07:36:25;;;;;;;0.08;0.08;;;;;;;7.80;74.99;99410.66;7364172;19;20010;-58
2022/11/18 07:38:52;;;;;;;0.00;0.00;;;;;;;7.76;74.78;99414.28;7363443;19;20105;-56
2022/11/18 07:41:20;;;;;;;0.00;0.00;;;;;;;7.78;75.24;99425.47;7363064;19;20033;-57
2022/11/18 07:43:47;;;;;;;0.00;0.00;;;;;;;7.75;74.98;99422.94;7363077;19;20021;-57
2022/11/18 07:46:19;;;;;;;0.00;0.00;;;;;;;7.72;74.83;99423.06;7363005;19;20019;-56
2022/11/18 07:48:47;;;;;;;0.00;0.00;;;;;;;7.70;74.99;99428.28;7361971;19;20002;-57
2022/11/18 07:51:14;;;;;;;0.10;0.10;;;;;;;7.68;74.66;99431.84;7355732;19;20029;-56
2022/11/18 07:53:40;;;;;;;0.00;0.00;;;;;;;7.66;74.74;99434.50;7364704;19;20025;-57
2022/11/18 07:56:07;;;;;;;0.00;0.00;;;;;;;7.65;74.49;99444.91;7364675;19;20735;-58
2022/11/18 07:58:33;;;;;;;0.10;0.10;;;;;;;7.63;74.49;99444.13;7363466;19;20019;-57
2022/11/18 08:01:10;;;;;;;0.08;0.08;;;;;;;7.52;74.35;99437.50;7364653;19;20023;-56
2022/11/18 08:03:35;;;;;;;0.05;0.05;;;;;;;7.36;74.46;99412.91;7363773;19;20009;-57
2022/11/18 08:06:02;;;;;;;0.10;0.10;;;;;;;7.56;74.38;99461.66;7360559;19;20018;-57
2022/11/18 08:08:27;;;;;;;0.00;0.00;;;;;;;7.57;74.84;99465.09;7352227;19;20756;-57
2022/11/18 08:10:57;;;;;;;0.00;0.00;;;;;;;7.41;74.47;99442.19;7363410;19;20010;-58
2022/11/18 08:13:23;;;;;;;0.10;0.10;;;;;;;7.51;74.56;99469.59;7365536;19;20808;-56
2022/11/18 08:15:49;;;;;;;0.00;0.00;;;;;;;7.51;74.68;99471.34;7366641;19;20394;-55
2022/11/18 08:18:14;;;;;;;0.00;0.00;;;;;;;7.50;74.52;99470.50;7363590;19;20010;-57
2022/11/18 08:20:39;;;;;;;0.00;0.00;;;;;;;7.48;74.39;99480.06;7366154;19;20038;-56
2022/11/18 08:23:05;;;;;;;0.00;0.00;;;;;;;7.47;74.40;99482.72;7364690;19;20778;-57
2022/11/18 08:25:30;;;;;;;0.00;0.00;;;;;;;7.46;74.35;99476.66;7365076;19;20013;-57
2022/11/18 08:27:56;;;;;;;0.10;0.10;;;;;;;7.45;74.59;99480.16;7362737;19;20062;-55
2022/11/18 08:30:21;;;;;;;0.00;0.00;;;;;;;7.43;74.08;99487.13;7364756;19;20018;-57
2022/11/18 08:32:47;;;;;;;0.00;0.00;;;;;;;7.43;74.17;99494.06;7360721;19;20010;-57
2022/11/18 08:35:12;;;;;;;0.00;0.00;;;;;;;7.42;74.49;99495.81;7363826;19;20018;-57
2022/11/18 08:37:38;;;;;;;0.00;0.00;;;;;;;7.41;74.35;99501.06;7363115;19;20021;-58
2022/11/18 08:40:04;;;;;;;0.10;0.10;;;;;;;7.40;74.36;99500.22;7362046;19;20007;-57
2022/11/18 08:42:30;;;;;;;0.00;0.00;;;;;;;7.38;74.19;99496.81;7361997;19;20014;-57
2022/11/18 08:44:56;;;;;;;0.10;0.10;;;;;;;7.37;74.50;99510.69;7364673;19;20010;-57
2022/11/18 08:47:21;;;;;;;0.10;0.10;;;;;;;7.37;73.99;99513.28;7361948;19;20011;-58
2022/11/18 08:49:47;;;;;;;0.05;0.05;;;;;;;7.32;73.83;99515.16;7362472;19;20465;-58
2022/11/18 08:52:12;;;;;;;0.10;0.10;;;;;;;7.37;74.43;99531.47;7361599;19;20029;-57
2022/11/18 08:54:38;;;;;;;0.10;0.10;;;;;;;7.37;74.48;99536.66;6272115;19;22868;-57
2022/11/18 08:57:03;;;;;;;0.08;0.08;;;;;;;7.35;74.18;99528.06;6375877;19;21403;-57
2022/11/18 08:59:29;;;;;;;0.03;0.03;;;;;;;7.35;74.26;99533.28;6481715;19;20010;-57
2022/11/18 09:01:54;;;;;;;0.03;0.03;;;;;;;7.39;74.12;99542.66;6682517;19;21656;-57
2022/11/18 09:04:20;;;;;;;0.00;0.00;;;;;;;7.46;74.92;99544.19;6709825;19;21339;-57
2022/11/18 09:06:45;;;;;;;0.10;0.10;;;;;;;7.51;74.18;99544.91;6674319;19;20090;-57
2022/11/18 09:09:10;;;;;;;0.10;0.10;;;;;;;7.57;74.43;99549.09;6762327;19;20418;-57
2022/11/18 09:11:38;;;;;;;0.00;0.00;;;;;;;7.66;74.80;99553.16;6736655;19;20571;-56
2022/11/18 09:14:03;;;;;;;0.00;0.00;;;;;;;7.53;74.11;99517.13;6713281;19;23393;-57
2022/11/18 09:16:31;;;;;;;0.10;0.10;;;;;;;7.71;73.92;99543.50;6661074;19;20015;-57
2022/11/18 09:18:57;;;;;;;0.10;0.10;;;;;;;7.74;73.98;99551.19;6561920;19;20011;-57
2022/11/18 09:21:24;;;;;;;0.10;0.10;;;;;;;7.74;73.78;99567.63;6647479;19;23190;-57
2022/11/18 09:23:50;;;;;;;0.00;0.00;;;;;;;7.64;73.72;99549.75;6755266;19;19998;-57
2022/11/18 09:26:19;;;;;;;0.10;0.10;;;;;;;7.68;73.81;99557.41;7104403;19;20359;-57
2022/11/18 09:28:45;;;;;;;0.00;0.00;;;;;;;7.75;73.61;99573.66;7355929;19;20039;-57
2022/11/18 09:31:14;;;;;;;0.00;0.00;;;;;;;7.67;74.17;99554.88;7358144;19;20007;-57
2022/11/18 09:33:39;;;;;;;0.10;0.10;;;;;;;7.71;73.83;99565.13;7355232;19;20006;-57
2022/11/18 09:36:14;;;;;;;0.00;0.00;;;;;;;7.82;74.14;99577.81;7357840;19;20017;-56
2022/11/18 09:38:40;;;;;;;0.00;0.00;;;;;;;7.84;74.13;99578.59;7357941;19;20034;-57
2022/11/18 09:41:08;;;;;;;0.10;0.10;;;;;;;7.88;74.13;99575.00;7366410;19;20011;-58
2022/11/18 09:43:52;;;;;;;0.10;0.10;;;;;;;8.04;74.26;99586.66;7366068;19;20527;-57
2022/11/18 09:46:29;;;;;;;0.10;0.10;;;;;;;8.09;73.95;99588.28;7368705;19;20014;-57
2022/11/18 09:49:13;;;;;;;0.10;0.10;;;;;;;8.02;73.67;99578.06;7365701;19;20074;-57
2022/11/18 09:51:45;;;;;;;0.00;0.00;;;;;;;8.03;73.32;99577.16;7367356;19;20356;-57
2022/11/18 09:54:22;;;;;;;0.05;0.05;;;;;;;8.25;74.50;99602.50;7368097;19;20880;-57
2022/11/18 09:56:49;;;;;;;0.10;0.10;;;;;;;8.35;74.66;99577.91;7367507;19;20022;-57
2022/11/18 09:59:18;;;;;;;0.10;0.10;;;;;;;8.49;74.42;99573.16;7366935;19;20031;-55
2022/11/18 10:01:44;;;;;;;0.10;0.10;;;;;;;8.75;74.55;99590.50;7363868;19;20012;-56
2022/11/18 10:04:18;;;;;;;0.00;0.00;;;;;;;9.02;74.68;99591.34;7365243;19;20101;-57
2022/11/18 10:06:45;;;;;;;0.00;0.00;;;;;;;9.21;74.57;99593.31;7363119;19;20057;-58
2022/11/18 10:09:33;;;;;;;0.10;0.10;;;;;;;9.51;74.96;99602.66;7364243;19;20025;-57
2022/11/18 10:12:14;;;;;;;0.00;0.00;;;;;;;9.76;75.05;99602.59;7263404;19;2004716;-56
2022/11/18 10:15:13;;;;;;;0.00;0.00;;;;;;;10.08;75.06;99609.22;7368757;19;20014;-57
2022/11/18 10:18:06;;;;;;;0.03;0.03;;;;;;;10.35;74.04;99611.72;7266317;19;2004464;-57
2022/11/18 10:20:34;;;;;;;0.10;0.10;;;;;;;10.60;72.57;99612.44;7362959;19;20011;-57
2022/11/18 10:23:38;;;;;;;0.05;0.05;;;;;;;10.96;74.21;99614.47;7363821;19;20006;-56
2022/11/18 10:26:03;;;;;;;0.00;0.00;;;;;;;11.14;71.81;99631.13;7259263;19;2003989;-57
2022/11/18 10:28:30;;;;;;;0.10;0.10;;;;;;;11.44;71.73;99626.34;7362960;19;20003;-57
2022/11/18 10:31:10;;;;;;;0.00;0.00;;;;;;;11.67;73.57;99618.34;7359781;19;20042;-57
2022/11/18 10:33:37;;;;;;;0.10;0.10;;;;;;;11.91;70.17;99636.50;7362088;19;20006;-57
2022/11/18 10:36:11;;;;;;;0.00;0.00;;;;;;;12.18;70.20;99640.50;7362572;19;20011;-57
2022/11/18 10:38:38;;;;;;;0.00;0.00;;;;;;;12.32;68.46;99639.84;7359045;19;20643;-57
2022/11/18 10:41:11;;;;;;;0.00;0.00;;;;;;;12.54;68.71;99639.69;7360866;19;20011;-58
2022/11/18 10:43:52;;;;;;;0.10;0.10;;;;;;;12.76;70.46;99630.78;7361045;19;20010;-57
2022/11/18 10:46:30;;;;;;;0.10;0.10;;;;;;;12.91;67.82;99645.75;7360366;19;20066;-55
2022/11/18 10:49:07;;;;;;;0.00;0.00;;;;;;;13.07;68.25;99638.81;7358197;19;20028;-58
2022/11/18 10:51:34;;;;;;;0.05;0.05;;;;;;;13.10;65.95;99643.94;7356410;19;20027;-57
2022/11/18 10:54:08;;;;;;;0.00;0.00;;;;;;;13.26;67.30;99651.03;7354786;19;20486;-56
2022/11/18 10:56:47;;;;;;;0.08;0.08;;;;;;;13.35;67.44;99635.69;7348756;19;20419;-57
2022/11/18 10:59:22;;;;;;;0.00;0.00;;;;;;;13.42;65.55;99641.47;7346292;19;20019;-57
2022/11/18 11:01:57;;;;;;;0.00;0.00;;;;;;;13.54;66.11;99651.34;7342222;19;20014;-57
2022/11/18 11:04:24;;;;;;;0.00;0.00;;;;;;;13.63;64.91;99656.09;7355574;19;20010;-57
2022/11/18 11:06:49;;;;;;;0.10;0.10;;;;;;;13.79;63.57;99655.28;7352509;19;20010;-57
2022/11/18 11:09:14;;;;;;;0.03;0.03;;;;;;;13.97;62.80;99659.56;7353393;19;20014;-57
2022/11/18 11:12:01;;;;;;;0.00;0.00;;;;;;;14.22;65.98;99665.22;7353995;19;20473;-57
2022/11/18 11:14:49;;;;;;;0.00;0.00;;;;;;;14.43;65.06;99667.59;7358771;19;20017;-56
2022/11/18 11:17:18;;;;;;;0.00;0.00;;;;;;;14.55;62.34;99666.97;7353825;19;20450;-56
2022/11/18 11:20:05;;;;;;;0.10;0.10;;;;;;;14.73;63.58;99671.16;7353686;19;20010;-56
2022/11/18 11:22:32;;;;;;;0.10;0.10;;;;;;;14.81;60.17;99673.38;7352318;19;20018;-56
2022/11/18 11:24:57;;;;;;;0.00;0.00;;;;;;;14.96;60.89;99671.66;7351279;19;20018;-57
2022/11/18 11:27:44;;;;;;;0.00;0.00;;;;;;;15.28;64.03;99689.06;7358303;19;20053;-55
2022/11/18 11:30:15;;;;;;;0.00;0.00;;;;;;;15.24;60.75;99666.50;7356287;19;20014;-58
2022/11/18 11:33:23;;;;;;;0.10;0.10;;;;;;;15.55;62.63;99686.56;7360134;19;20470;-58
2022/11/18 11:36:06;;;;;;;0.10;0.10;;;;;;;15.63;59.85;99694.06;7255636;19;2004149;-57
2022/11/18 11:39:07;;;;;;;0.10;0.10;;;;;;;15.70;55.92;99689.25;7357679;19;20010;-57
2022/11/18 11:41:45;;;;;;;0.00;0.00;;;;;;;15.86;58.26;99692.66;7252303;19;2005872;-57
2022/11/18 11:44:35;;;;;;;0.00;0.00;;;;;;;15.96;58.38;99690.31;7357312;19;20014;-57
2022/11/18 11:47:46;;;;;;;0.00;0.00;;;;;;;16.07;58.50;99709.81;7359689;19;20018;-57
2022/11/18 11:50:52;;;;;;;0.10;0.10;;;;;;;16.21;59.12;99721.25;7259587;19;2004320;-57
2022/11/18 11:53:41;;;;;;;0.10;0.10;;;;;;;16.32;57.18;99719.69;7258023;19;2004286;-57
2022/11/18 11:56:09;;;;;;;0.10;0.10;;;;;;;16.34;53.34;99722.22;7355845;19;20509;-57
2022/11/18 11:59:05;;;;;;;0.00;0.00;;;;;;;16.54;58.29;99726.25;7358756;19;20022;-56
2022/11/18 12:02:08;;;;;;;0.10;0.10;;;;;;;16.70;58.73;99711.13;7258420;19;2004506;-57
2022/11/18 12:04:45;;;;;;;0.10;0.10;;;;;;;16.78;54.00;99722.09;7256604;19;2004372;-57
2022/11/18 12:07:20;;;;;;;0.10;0.10;;;;;;;16.97;55.47;99720.88;7360084;19;20470;-57
2022/11/18 12:10:19;;;;;;;0.10;0.10;;;;;;;17.11;55.76;99726.13;7360202;19;20046;-58